首页
METAR-TAF:

METAR-TAF

机场 :

米蘭-利納特機場

米蘭, 意大利

纬度: 45-26N, 经度: 009-17E, 海拔: 107米

当前天气观测

该预报发布于25分钟前的21:20 UTC
风速3节,风向北转西北,在西之间变化
温度 18°C
湿度 68%
气压 1013 hPa
能见度10公里或以上
少量云层高于7000英尺

METAR: LIML 242120Z 33003KT 280V010 9999 FEW070 18/12 Q1013 NOSIG

时间: 23:45 (21:45 UTC)

预报

该预报发布于4小时和45分钟前的17:00 UTC
预报有效从24日的 18点(UTC)到 25日的 18点(UTC)
风速5节,风向多变
能见度10公里或以上
散云层高于4000英尺
散云层高于7000英尺
几率 40% :
短暂存在
从 24日的 18点(UTC)到 25日的 03点(UTC)
雷暴, 雨
短暂存在
从 25日的 03点(UTC)到 25日的 18点(UTC)
能見度: 4000
多云层高于1200英尺, 积雨云.
雷暴, 雨

TAF: LIML 241700Z 2418/2518 VRB05KT 9999 SCT040 SCT070 PROB40 TEMPO 2418/2503 TSRA TEMPO 2503/2518 4000 TSRA BKN012CB

超过4000个机场的气象观测和天气预报(METAR&TAF报告)。

可查询的气象台以黄色和红色小点在地图上表示。

将鼠标移到小点上方,可查看气象台名称。

然后点击查看天气观测和预报。

如需切换地图:点击带黑十字的绿色按钮放大地图;点击带横线的绿色按钮缩小地图;或者点击绿色箭头查看邻近地区的地图。


METAR-TAF: